Weather History for Robinson, IL

Change the Weather History Date:

Tuesday, October 30, 2012

  Actual Average (KLWV) Record (KLWV)
Temperature  
Mean Temperature 45 °F 53 °F  
Max Temperature 50 °F 64 °F 79 °F (2004)
Min Temperature 40 °F 42 °F 30 °F (2005)
Degree Days  
Heating Degree Days 20 12  
Month to date heating degree days 245  
Since 1 July heating degree days 284  
Cooling Degree Days 0 0  
Month to date cooling degree days 31  
Year to date cooling degree days 1385  
Moisture  
Dew Point 30 °F    
Average Humidity 58    
Maximum Humidity 69    
Minimum Humidity 46    
Precipitation  
Precipitation 0.00 in 0.07 in 0.54 in (2013)
Month to date precipitation 3.91  
Year to date precipitation 36.45  
Sea Level Pressure  
Sea Level Pressure 29.85 in    
Wind  
Wind Speed 17 mph (WNW)    
Max Wind Speed 26 mph    
Max Gust Speed 32 mph    
Visibility 10 miles    
Events      
T = Trace of Precipitation, MM = Missing Value Source: NWS Daily Summary

Daily Weather History Graph

Daily Weather History Graph

Search for Another Location

Airport:

Trip Planner

Search our weather history database for the weather conditions in past years. The results will help you decide how hot, cold, wet, or windy it might be!

Date:

Astronomy

Oct. 30, 2012 Rise Set
Actual Time 7:16 AM CDT 5:51 PM CDT
Civil Twilight 6:48 AM CDT 6:19 PM CDT
Nautical Twilight 6:17 AM CDT 6:50 PM CDT
Astronomical Twilight 5:46 AM CDT 7:21 PM CDT
Moon 6:21 PM CDT (10/30) 8:02 AM CDT (10/30)
Length of Visible Light 11h 30m
Length of Day
10h 35m
Full, 99% of the Moon is Illuminated
Oct 30
Full
Nov 6
Last Quarter
Nov 13
New
Nov 20
First Quarter
Nov 28
Full

Hourly Weather History & Observations

Time (CDT) Temp. Windchill Dew Point Humidity Pressure Visibility Wind Dir Wind Speed Gust Speed Precip Events Conditions
12:15 AM 43.9 °F 36.5 °F 29.8 °F 58% 30.00 in 10.0 mi NW 16.1 mph 23.0 mph N/A   Clear
12:35 AM 43.7 °F 36.3 °F 30.0 °F 59% 29.99 in 10.0 mi NW 16.1 mph 25.3 mph N/A   Clear
12:55 AM 43.3 °F 35.8 °F 30.7 °F 61% 29.98 in 10.0 mi NW 16.1 mph 23.0 mph N/A   Clear
1:15 AM 42.8 °F 35.8 °F 31.1 °F 63% 29.97 in 10.0 mi WNW 13.8 mph 21.9 mph N/A   Clear
1:35 AM 42.3 °F 34.1 °F 31.5 °F 66% 29.96 in 10.0 mi WNW 17.3 mph 20.7 mph N/A   Clear
1:55 AM 41.9 °F 33.7 °F 31.1 °F 66% 29.95 in 10.0 mi WNW 17.3 mph 23.0 mph N/A   Clear
2:15 AM 41.9 °F 34.3 °F 30.2 °F 63% 29.94 in 10.0 mi NW 15.0 mph 23.0 mph N/A   Clear
2:35 AM 41.4 °F 33.3 °F 30.2 °F 65% 29.93 in 10.0 mi WNW 16.1 mph - N/A   Clear
2:55 AM 41.7 °F 33.7 °F 30.7 °F 65% 29.93 in 10.0 mi NW 16.1 mph 25.3 mph N/A   Clear
3:15 AM 41.9 °F 33.4 °F 30.7 °F 65% 29.92 in 10.0 mi NW 18.4 mph 23.0 mph N/A   Clear
3:35 AM 41.9 °F 33.7 °F 30.7 °F 65% 29.91 in 10.0 mi WNW 17.3 mph 24.2 mph N/A   Clear
3:55 AM 41.9 °F 33.7 °F 30.6 °F 64% 29.90 in 10.0 mi NW 17.3 mph 24.2 mph N/A   Clear
4:15 AM 41.9 °F 33.4 °F 30.2 °F 63% 29.89 in 10.0 mi WNW 18.4 mph 26.5 mph N/A   Clear
4:35 AM 41.7 °F 33.7 °F 30.7 °F 65% 29.88 in 10.0 mi WNW 16.1 mph 24.2 mph N/A   Clear
4:55 AM 41.4 °F 32.4 °F 30.7 °F 66% 29.88 in 10.0 mi WNW 19.6 mph 26.5 mph N/A   Clear
5:15 AM 41.0 °F 32.2 °F 30.7 °F 67% 29.87 in 10.0 mi WNW 18.4 mph 26.5 mph N/A   Clear
5:35 AM 41.0 °F 31.6 °F 30.7 °F 67% 29.87 in 10.0 mi WNW 20.7 mph 28.8 mph N/A   Clear
5:55 AM 41.0 °F 32.2 °F 30.7 °F 67% 29.87 in 10.0 mi WNW 18.4 mph 29.9 mph N/A   Clear
6:15 AM 40.6 °F 31.7 °F 30.7 °F 68% 29.87 in 10.0 mi WNW 18.4 mph 28.8 mph N/A   Clear
6:55 AM 40.1 °F 31.6 °F 30.7 °F 69% 29.85 in 10.0 mi WNW 16.1 mph 21.9 mph N/A   Clear
7:15 AM 40.1 °F 31.3 °F 30.6 °F 69% 29.85 in 10.0 mi WNW 17.3 mph 24.2 mph N/A   Clear
7:35 AM 40.1 °F 31.0 °F 30.6 °F 69% 29.85 in 10.0 mi WNW 18.4 mph 26.5 mph N/A   Clear
7:55 AM 40.1 °F 31.0 °F 30.2 °F 68% 29.85 in 10.0 mi WNW 18.4 mph 25.3 mph N/A   Clear
8:15 AM 40.1 °F 30.5 °F 30.2 °F 68% 29.84 in 10.0 mi WNW 20.7 mph 31.1 mph N/A   Clear
8:35 AM 40.1 °F 30.2 °F 30.6 °F 69% 29.84 in 10.0 mi WNW 21.9 mph 31.1 mph N/A   Clear
8:55 AM 40.5 °F 31.2 °F 31.1 °F 69% 29.84 in 10.0 mi WNW 19.6 mph 26.5 mph N/A   Clear
9:15 AM 41.0 °F 31.6 °F 31.1 °F 68% 29.84 in 10.0 mi WNW 20.7 mph 27.6 mph N/A   Clear
9:35 AM 41.2 °F 32.1 °F 31.1 °F 67% 29.84 in 10.0 mi WNW 19.6 mph 28.8 mph N/A   Clear
9:55 AM 41.9 °F 32.8 °F 31.5 °F 66% 29.83 in 10.0 mi NW 20.7 mph 28.8 mph N/A   Clear
10:15 AM 42.8 °F 34.5 °F 31.5 °F 64% 29.83 in 10.0 mi WNW 18.4 mph 23.0 mph N/A   Clear
10:35 AM 43.0 °F 33.8 °F 31.5 °F 64% 29.83 in 10.0 mi WNW 23.0 mph 31.1 mph N/A   Clear
10:55 AM 43.7 °F 35.4 °F 31.3 °F 62% 29.83 in 10.0 mi WNW 19.6 mph 29.9 mph N/A   Clear
11:15 AM 44.1 °F 36.2 °F 31.5 °F 61% 29.83 in 10.0 mi NW 18.4 mph 24.2 mph N/A   Clear
11:35 AM 44.8 °F 37.1 °F 31.3 °F 59% 29.83 in 10.0 mi NW 18.4 mph 32.2 mph N/A   Clear
11:55 AM 45.5 °F 38.1 °F 31.3 °F 58% 29.82 in 10.0 mi NW 18.4 mph 31.1 mph N/A   Clear
12:15 PM 46.2 °F 38.3 °F 31.5 °F 56% 29.82 in 10.0 mi WNW 21.9 mph 29.9 mph N/A   Clear
12:35 PM 46.4 °F 38.3 °F 31.5 °F 56% 29.82 in 10.0 mi WNW 23.0 mph 31.1 mph N/A   Clear
12:55 PM 46.9 °F - 31.5 °F 55% 29.81 in 10.0 mi WNW 24.2 mph 29.9 mph N/A   Clear
1:15 PM 47.3 °F - 31.5 °F 54% 29.81 in 10.0 mi WNW 21.9 mph 31.1 mph N/A   Clear
1:35 PM 47.5 °F - 31.8 °F 55% 29.80 in 10.0 mi NW 23.0 mph 31.1 mph N/A   Clear
1:55 PM 49.3 °F - 32.0 °F 51% 29.79 in 10.0 mi NW 21.9 mph 31.1 mph N/A   Clear
2:15 PM 50.2 °F - 32.0 °F 50% 29.80 in 10.0 mi NW 16.1 mph 27.6 mph N/A   Clear
2:35 PM 50.5 °F - 32.0 °F 49% 29.79 in 10.0 mi NW 17.3 mph 25.3 mph N/A   Scattered Clouds
2:55 PM 50.0 °F - 31.1 °F 48% 29.80 in 10.0 mi WNW 26.5 mph - N/A   Scattered Clouds
3:15 PM 49.5 °F - 30.9 °F 49% 29.80 in 10.0 mi WNW 18.4 mph 26.5 mph N/A   Scattered Clouds
3:35 PM 50.0 °F - 30.2 °F 47% 29.79 in 10.0 mi NW 19.6 mph 31.1 mph N/A   Scattered Clouds
3:55 PM 50.5 °F - 30.4 °F 46% 29.79 in 10.0 mi WNW 21.9 mph 29.9 mph N/A   Scattered Clouds
4:15 PM 50.4 °F - 30.4 °F 46% 29.80 in 10.0 mi WNW 18.4 mph 26.5 mph N/A   Scattered Clouds
4:35 PM 50.4 °F - 30.2 °F 46% 29.80 in 10.0 mi NW 19.6 mph 25.3 mph N/A   Overcast
4:55 PM 49.6 °F - 30.0 °F 47% 29.81 in 10.0 mi NW 11.5 mph 25.3 mph N/A   Overcast
5:15 PM 49.3 °F - 30.6 °F 49% 29.81 in 10.0 mi NW 13.8 mph - N/A   Overcast
5:35 PM 49.5 °F - 30.4 °F 48% 29.81 in 10.0 mi WNW 11.5 mph 17.3 mph N/A   Overcast
5:55 PM 49.5 °F - 31.3 °F 50% 29.81 in 10.0 mi WNW 12.7 mph 16.1 mph N/A   Overcast
6:15 PM 49.1 °F - 29.3 °F 46% 29.82 in 10.0 mi WNW 13.8 mph 20.7 mph N/A   Overcast
6:35 PM 49.1 °F - 29.3 °F 46% 29.83 in 10.0 mi WNW 16.1 mph - N/A   Overcast
6:55 PM 49.1 °F - 29.1 °F 46% 29.83 in 10.0 mi WNW 15.0 mph - N/A   Overcast
7:15 PM 48.7 °F - 28.9 °F 46% 29.84 in 10.0 mi WNW 16.1 mph 20.7 mph N/A   Overcast
7:35 PM 48.4 °F - 28.4 °F 46% 29.84 in 10.0 mi WNW 16.1 mph 25.3 mph N/A   Overcast
7:55 PM 48.2 °F - 28.0 °F 46% 29.84 in 10.0 mi NW 13.8 mph 21.9 mph N/A   Overcast
8:15 PM 47.7 °F - 28.0 °F 47% 29.84 in 10.0 mi NW 12.7 mph 19.6 mph N/A   Mostly Cloudy
8:35 PM 46.6 °F - 28.6 °F 50% 29.84 in 10.0 mi NW 11.5 mph 19.6 mph N/A   Scattered Clouds
8:55 PM 46.6 °F - 28.6 °F 50% 29.84 in 10.0 mi NW 11.5 mph 17.3 mph N/A   Scattered Clouds
9:15 PM 45.9 °F 40.0 °F 28.6 °F 51% 29.84 in 10.0 mi WNW 12.7 mph 16.1 mph N/A   Scattered Clouds
9:35 PM 45.0 °F 39.3 °F 29.1 °F 54% 29.84 in 10.0 mi WNW 11.5 mph - N/A   Scattered Clouds
10:35 PM 44.2 °F 38.8 °F 29.3 °F 56% 29.84 in 10.0 mi WNW 10.4 mph - N/A   Clear
10:55 PM 43.9 °F 38.8 °F 29.5 °F 57% 29.84 in 10.0 mi WNW 9.2 mph - N/A   Clear
11:15 PM 43.7 °F 39.1 °F 29.5 °F 57% 29.83 in 10.0 mi WNW 8.1 mph - N/A   Clear
11:35 PM 43.7 °F 39.1 °F 29.5 °F 57% 29.83 in 10.0 mi WNW 8.1 mph - N/A   Clear
11:55 PM 43.0 °F 38.2 °F 29.3 °F 59% 29.83 in 10.0 mi WNW 8.1 mph - N/A   Clear